Ag Nektarios Aiginas — SX7083 — position and weather

sailwx.info

Track history (hours):
 
Tides and Currents Weather Stations Pressure Air Temp Water Temp Dewpoint Dewpoint Depression Visibility Wind Speed Wind Dir Waves Ship Positions

Ag Nektarios Aiginas

Last reported at 2014-Sep-17 16:33 UTC. Time now 2014-Sep-18 03:45 UTC.
Position N 37°56' E 023°36'.

Length 75 m; draft 2.7 m.

Type: Passenger vessel. MMSI: 237021400.

Date/timePositionNaut miles runAvg speedWind from/ knotsBaromVisibWave heightAir tempDewpointWater temp
2014-Sep-17 16:33N 37°56' E 023°36'1212.4
2014-Sep-17 15:33N 37°46' E 023°26'1 1.2
2014-Sep-17 14:33N 37°46' E 023°24'1313.0
2014-Sep-17 13:33N 37°55' E 023°36'1 1.2
2014-Sep-17 12:33N 37°56' E 023°36'1312.6
2014-Sep-17 11:33N 37°47' E 023°26'1 1.0
2014-Sep-17 10:33N 37°46' E 023°25'1312.8
2014-Sep-17 09:33N 37°55' E 023°36'2 2.4
2014-Sep-17 08:33N 37°57' E 023°38'1212.0
2014-Sep-17 07:33N 37°48' E 023°28'2 2.2
2014-Sep-17 06:33N 37°47' E 023°26'1312.9
2014-Sep-17 05:33N 37°56' E 023°37'0 0.0
2014-Sep-16 16:33N 37°56' E 023°37'1312.6
2014-Sep-16 15:33N 37°47' E 023°26'2 1.7
2014-Sep-16 14:33N 37°45' E 023°25'1312.9
2014-Sep-16 13:33N 37°55' E 023°36'1 1.5
2014-Sep-16 12:34N 37°56' E 023°37'1312.8
2014-Sep-16 11:33N 37°47' E 023°26'0 0.1
2014-Sep-16 10:31N 37°47' E 023°25'1212.8
2014-Sep-16 09:33N 37°55' E 023°36'2 2.1
2014-Sep-16 08:33N 37°57' E 023°38'1212.1
2014-Sep-16 07:33N 37°48' E 023°28'2 2.2
2014-Sep-16 06:33N 37°47' E 023°26'1312.8
2014-Sep-16 05:33N 37°56' E 023°37'1 0.0
2014-Sep-15 16:33N 37°56' E 023°37'1312.7
2014-Sep-15 15:33N 37°47' E 023°26'2 1.6
2014-Sep-15 14:33N 37°46' E 023°25'1312.9
2014-Sep-15 13:33N 37°55' E 023°36'1 1.2
2014-Sep-15 12:33N 37°56' E 023°37'1312.8
2014-Sep-15 11:33N 37°47' E 023°26'1 1.5
2014-Sep-15 10:33N 37°46' E 023°25'1312.9
2014-Sep-15 09:33N 37°55' E 023°36'2 2.4
2014-Sep-15 08:33N 37°57' E 023°38'1212.2
2014-Sep-15 07:33N 37°48' E 023°28'2 2.2
2014-Sep-15 06:33N 37°46' E 023°25'1313.0
2014-Sep-15 05:33N 37°56' E 023°37'1 0.1
2014-Sep-14 19:33N 37°56' E 023°37'1312.7
2014-Sep-14 18:33N 37°47' E 023°26'0 0.2
2014-Sep-14 17:33N 37°47' E 023°26'1312.7
2014-Sep-14 16:33N 37°56' E 023°37'5 4.9
2014-Sep-14 15:33N 37°52' E 023°34'10 7.5
2014-Sep-14 14:15N 37°45' E 023°26'5 7.1
2014-Sep-14 13:33N 37°49' E 023°30'1110.9
2014-Sep-14 12:33N 37°57' E 023°38'7 6.7
2014-Sep-14 11:33N 37°52' E 023°33'9 8.6
2014-Sep-14 10:30N 37°45' E 023°25'3 3.6
2014-Sep-14 09:33N 37°48' E 023°28'1212.4
2014-Sep-14 08:33N 37°57' E 023°38'4 4.2
2014-Sep-14 07:33N 37°54' E 023°35'1211.2
2014-Sep-14 06:31N 37°45' E 023°25'6 6.0
2014-Sep-14 05:33N 37°49' E 023°30'9 0.7
2014-Sep-13 16:31N 37°56' E 023°37'1312.9
2014-Sep-13 15:33N 37°47' E 023°26'1 1.3
2014-Sep-13 14:30N 37°46' E 023°25'1212.9
2014-Sep-13 13:33N 37°55' E 023°36'1 1.2
2014-Sep-13 12:33N 37°56' E 023°37'1312.8
2014-Sep-13 11:33N 37°47' E 023°25'0 0.3
2014-Sep-13 10:33N 37°47' E 023°26'11 5.6
2014-Sep-13 08:33N 37°55' E 023°36'13 8.7
2014-Sep-13 07:06N 37°45' E 023°25'3 5.0
2014-Sep-13 06:33N 37°47' E 023°27'1312.7
2014-Sep-13 05:34N 37°56' E 023°38'1 0.7
2014-Sep-13 04:34N 37°57' E 023°38'1 0.1
2014-Sep-12 16:33N 37°56' E 023°37'1312.8
2014-Sep-12 15:33N 37°47' E 023°26'0 0.2
2014-Sep-12 14:32N 37°47' E 023°26'1312.7
2014-Sep-12 13:33N 37°56' E 023°37'1 0.6
2014-Sep-12 12:33N 37°56' E 023°38'1312.8
2014-Sep-12 11:33N 37°47' E 023°26'1 1.2
2014-Sep-12 10:32N 37°46' E 023°25'1212.8
2014-Sep-12 09:33N 37°55' E 023°36'2 2.3
2014-Sep-12 08:34N 37°57' E 023°38'1211.9
2014-Sep-12 07:33N 37°48' E 023°28'2 2.0
2014-Sep-12 06:34N 37°47' E 023°26'1312.9
2014-Sep-12 05:34N 37°56' E 023°37'1 1.2
2014-Sep-12 04:33N 37°57' E 023°38'2 0.1
2014-Sep-11 16:33N 37°56' E 023°37'1312.9
2014-Sep-11 15:33N 37°47' E 023°25'0 0.1
2014-Sep-11 14:30N 37°47' E 023°26'1212.7
2014-Sep-11 13:33N 37°55' E 023°36'1 1.0
2014-Sep-11 12:33N 37°56' E 023°37'1312.9
2014-Sep-11 11:33N 37°47' E 023°26'1 1.0
2014-Sep-11 10:33N 37°46' E 023°25'1312.8
2014-Sep-11 09:33N 37°55' E 023°36'2 1.9
2014-Sep-11 08:33N 37°56' E 023°38'1212.5
2014-Sep-11 07:33N 37°47' E 023°27'1 1.3
2014-Sep-11 06:33N 37°47' E 023°26'1312.8
2014-Sep-11 05:33N 37°56' E 023°37'2 0.1
2014-Sep-10 17:05N 37°57' E 023°38'1 1.7
2014-Sep-10 16:33N 37°56' E 023°37'1312.8
2014-Sep-10 15:33N 37°47' E 023°26'1 0.8
2014-Sep-10 14:33N 37°47' E 023°26'1312.8
2014-Sep-10 13:33N 37°56' E 023°37'0 0.3
2014-Sep-10 12:33N 37°56' E 023°37'1312.9
2014-Sep-10 11:33N 37°47' E 023°26'1 1.1
2014-Sep-10 10:33N 37°46' E 023°25'1312.9
2014-Sep-10 09:33N 37°55' E 023°36'2 2.4
2014-Sep-10 08:33N 37°57' E 023°38'1111.1
2014-Sep-10 07:33N 37°49' E 023°29'4 3.5
2014-Sep-10 06:33N 37°46' E 023°25'1312.9
2014-Sep-10 05:33N 37°56' E 023°37'0 0.0
2014-Sep-09 16:33N 37°56' E 023°37'1312.6
2014-Sep-09 15:33N 37°47' E 023°26'1 0.7
2014-Sep-09 14:33N 37°46' E 023°25'1312.9
2014-Sep-09 13:33N 37°55' E 023°36'1 0.7
2014-Sep-09 12:33N 37°56' E 023°37'1312.8
2014-Sep-09 11:33N 37°47' E 023°26'1 1.0
2014-Sep-09 10:33N 37°46' E 023°25'1312.7
2014-Sep-09 09:33N 37°55' E 023°36'2 2.4
2014-Sep-09 08:33N 37°57' E 023°38'1211.8
2014-Sep-09 07:33N 37°48' E 023°28'2 2.3
2014-Sep-09 06:32N 37°47' E 023°26'1312.8
2014-Sep-09 05:33N 37°56' E 023°37'2 1.6
2014-Sep-09 04:33N 37°57' E 023°39'3 0.2
2014-Sep-08 16:33N 37°55' E 023°36'1312.8
2014-Sep-08 15:33N 37°46' E 023°25'1 0.7
2014-Sep-08 14:32N 37°46' E 023°25'1212.5
2014-Sep-08 13:33N 37°55' E 023°36'1 0.8
2014-Sep-08 12:33N 37°56' E 023°37'1312.8
2014-Sep-08 11:33N 37°47' E 023°26'1 0.8
2014-Sep-08 10:33N 37°46' E 023°25'1312.8
2014-Sep-08 09:33N 37°55' E 023°36'2 1.8
2014-Sep-08 08:33N 37°54' E 023°35'10 4.9
2014-Sep-08 06:33N 37°47' E 023°26'1312.7
2014-Sep-08 05:33N 37°56' E 023°37'1 0.1
2014-Sep-07 20:04N 37°57' E 023°38'5 8.9
2014-Sep-07 19:33N 37°53' E 023°34'7 3.6
2014-Sep-07 17:33N 37°48' E 023°28'  
Track history (hours):
 
Tides and Currents Weather Stations Pressure Air Temp Water Temp Dewpoint Dewpoint Depression Visibility Wind Speed Wind Dir Waves Ship Positions

Ag Nektarios Aiginas

Last reported at 2014-Sep-17 16:33 UTC. Time now 2014-Sep-18 03:45 UTC.
Position N 37°56' E 023°36'.

Length 75 m; draft 2.7 m.

Type: Passenger vessel. MMSI: 237021400.

Date/timePositionNaut miles runAvg speedWind from/ knotsBaromVisibWave heightAir tempDewpointWater temp
2014-Sep-17 16:33N 37°56' E 023°36'1212.4
2014-Sep-17 15:33N 37°46' E 023°26'1 1.2
2014-Sep-17 14:33N 37°46' E 023°24'1313.0
2014-Sep-17 13:33N 37°55' E 023°36'1 1.2
2014-Sep-17 12:33N 37°56' E 023°36'1312.6
2014-Sep-17 11:33N 37°47' E 023°26'1 1.0
2014-Sep-17 10:33N 37°46' E 023°25'1312.8
2014-Sep-17 09:33N 37°55' E 023°36'2 2.4
2014-Sep-17 08:33N 37°57' E 023°38'1212.0
2014-Sep-17 07:33N 37°48' E 023°28'2 2.2
2014-Sep-17 06:33N 37°47' E 023°26'1312.9
2014-Sep-17 05:33N 37°56' E 023°37'0 0.0
2014-Sep-16 16:33N 37°56' E 023°37'1312.6
2014-Sep-16 15:33N 37°47' E 023°26'2 1.7
2014-Sep-16 14:33N 37°45' E 023°25'1312.9
2014-Sep-16 13:33N 37°55' E 023°36'1 1.5
2014-Sep-16 12:34N 37°56' E 023°37'1312.8
2014-Sep-16 11:33N 37°47' E 023°26'0 0.1
2014-Sep-16 10:31N 37°47' E 023°25'1212.8
2014-Sep-16 09:33N 37°55' E 023°36'2 2.1
2014-Sep-16 08:33N 37°57' E 023°38'1212.1
2014-Sep-16 07:33N 37°48' E 023°28'2 2.2
2014-Sep-16 06:33N 37°47' E 023°26'1312.8
2014-Sep-16 05:33N 37°56' E 023°37'1 0.0
2014-Sep-15 16:33N 37°56' E 023°37'1312.7
2014-Sep-15 15:33N 37°47' E 023°26'2 1.6
2014-Sep-15 14:33N 37°46' E 023°25'1312.9
2014-Sep-15 13:33N 37°55' E 023°36'1 1.2
2014-Sep-15 12:33N 37°56' E 023°37'1312.8
2014-Sep-15 11:33N 37°47' E 023°26'1 1.5
2014-Sep-15 10:33N 37°46' E 023°25'1312.9
2014-Sep-15 09:33N 37°55' E 023°36'2 2.4
2014-Sep-15 08:33N 37°57' E 023°38'1212.2
2014-Sep-15 07:33N 37°48' E 023°28'2 2.2
2014-Sep-15 06:33N 37°46' E 023°25'1313.0
2014-Sep-15 05:33N 37°56' E 023°37'1 0.1
2014-Sep-14 19:33N 37°56' E 023°37'1312.7
2014-Sep-14 18:33N 37°47' E 023°26'0 0.2
2014-Sep-14 17:33N 37°47' E 023°26'1312.7
2014-Sep-14 16:33N 37°56' E 023°37'5 4.9
2014-Sep-14 15:33N 37°52' E 023°34'10 7.5
2014-Sep-14 14:15N 37°45' E 023°26'5 7.1
2014-Sep-14 13:33N 37°49' E 023°30'1110.9
2014-Sep-14 12:33N 37°57' E 023°38'7 6.7
2014-Sep-14 11:33N 37°52' E 023°33'9 8.6
2014-Sep-14 10:30N 37°45' E 023°25'3 3.6
2014-Sep-14 09:33N 37°48' E 023°28'1212.4
2014-Sep-14 08:33N 37°57' E 023°38'4 4.2
2014-Sep-14 07:33N 37°54' E 023°35'1211.2
2014-Sep-14 06:31N 37°45' E 023°25'6 6.0
2014-Sep-14 05:33N 37°49' E 023°30'9 0.7
2014-Sep-13 16:31N 37°56' E 023°37'1312.9
2014-Sep-13 15:33N 37°47' E 023°26'1 1.3
2014-Sep-13 14:30N 37°46' E 023°25'1212.9
2014-Sep-13 13:33N 37°55' E 023°36'1 1.2
2014-Sep-13 12:33N 37°56' E 023°37'1312.8
2014-Sep-13 11:33N 37°47' E 023°25'0 0.3
2014-Sep-13 10:33N 37°47' E 023°26'11 5.6
2014-Sep-13 08:33N 37°55' E 023°36'13 8.7
2014-Sep-13 07:06N 37°45' E 023°25'3 5.0
2014-Sep-13 06:33N 37°47' E 023°27'1312.7
2014-Sep-13 05:34N 37°56' E 023°38'1 0.7
2014-Sep-13 04:34N 37°57' E 023°38'1 0.1
2014-Sep-12 16:33N 37°56' E 023°37'1312.8
2014-Sep-12 15:33N 37°47' E 023°26'0 0.2
2014-Sep-12 14:32N 37°47' E 023°26'1312.7
2014-Sep-12 13:33N 37°56' E 023°37'1 0.6
2014-Sep-12 12:33N 37°56' E 023°38'1312.8
2014-Sep-12 11:33N 37°47' E 023°26'1 1.2
2014-Sep-12 10:32N 37°46' E 023°25'1212.8
2014-Sep-12 09:33N 37°55' E 023°36'2 2.3
2014-Sep-12 08:34N 37°57' E 023°38'1211.9
2014-Sep-12 07:33N 37°48' E 023°28'2 2.0
2014-Sep-12 06:34N 37°47' E 023°26'1312.9
2014-Sep-12 05:34N 37°56' E 023°37'1 1.2
2014-Sep-12 04:33N 37°57' E 023°38'2 0.1
2014-Sep-11 16:33N 37°56' E 023°37'1312.9
2014-Sep-11 15:33N 37°47' E 023°25'0 0.1
2014-Sep-11 14:30N 37°47' E 023°26'1212.7
2014-Sep-11 13:33N 37°55' E 023°36'1 1.0
2014-Sep-11 12:33N 37°56' E 023°37'1312.9
2014-Sep-11 11:33N 37°47' E 023°26'1 1.0
2014-Sep-11 10:33N 37°46' E 023°25'1312.8
2014-Sep-11 09:33N 37°55' E 023°36'2 1.9
2014-Sep-11 08:33N 37°56' E 023°38'1212.5
2014-Sep-11 07:33N 37°47' E 023°27'1 1.3
2014-Sep-11 06:33N 37°47' E 023°26'1312.8
2014-Sep-11 05:33N 37°56' E 023°37'2 0.1
2014-Sep-10 17:05N 37°57' E 023°38'1 1.7
2014-Sep-10 16:33N 37°56' E 023°37'1312.8
2014-Sep-10 15:33N 37°47' E 023°26'1 0.8
2014-Sep-10 14:33N 37°47' E 023°26'1312.8
2014-Sep-10 13:33N 37°56' E 023°37'0 0.3
2014-Sep-10 12:33N 37°56' E 023°37'1312.9
2014-Sep-10 11:33N 37°47' E 023°26'1 1.1
2014-Sep-10 10:33N 37°46' E 023°25'1312.9
2014-Sep-10 09:33N 37°55' E 023°36'2 2.4
2014-Sep-10 08:33N 37°57' E 023°38'1111.1
2014-Sep-10 07:33N 37°49' E 023°29'4 3.5
2014-Sep-10 06:33N 37°46' E 023°25'1312.9
2014-Sep-10 05:33N 37°56' E 023°37'0 0.0
2014-Sep-09 16:33N 37°56' E 023°37'1312.6
2014-Sep-09 15:33N 37°47' E 023°26'1 0.7
2014-Sep-09 14:33N 37°46' E 023°25'1312.9
2014-Sep-09 13:33N 37°55' E 023°36'1 0.7
2014-Sep-09 12:33N 37°56' E 023°37'1312.8
2014-Sep-09 11:33N 37°47' E 023°26'1 1.0
2014-Sep-09 10:33N 37°46' E 023°25'1312.7
2014-Sep-09 09:33N 37°55' E 023°36'2 2.4
2014-Sep-09 08:33N 37°57' E 023°38'1211.8
2014-Sep-09 07:33N 37°48' E 023°28'2 2.3
2014-Sep-09 06:32N 37°47' E 023°26'1312.8
2014-Sep-09 05:33N 37°56' E 023°37'2 1.6
2014-Sep-09 04:33N 37°57' E 023°39'3 0.2
2014-Sep-08 16:33N 37°55' E 023°36'1312.8
2014-Sep-08 15:33N 37°46' E 023°25'1 0.7
2014-Sep-08 14:32N 37°46' E 023°25'1212.5
2014-Sep-08 13:33N 37°55' E 023°36'1 0.8
2014-Sep-08 12:33N 37°56' E 023°37'1312.8
2014-Sep-08 11:33N 37°47' E 023°26'1 0.8
2014-Sep-08 10:33N 37°46' E 023°25'1312.8
2014-Sep-08 09:33N 37°55' E 023°36'2 1.8
2014-Sep-08 08:33N 37°54' E 023°35'10 4.9
2014-Sep-08 06:33N 37°47' E 023°26'1312.7
2014-Sep-08 05:33N 37°56' E 023°37'1 0.1
2014-Sep-07 20:04N 37°57' E 023°38'5 8.9
2014-Sep-07 19:33N 37°53' E 023°34'7 3.6
2014-Sep-07 17:33N 37°48' E 023°28'  

Dump ship's entire track history